Time;durP1;ratioP1;P1;durP2;ratioP2;P2;SDS_P1;SDS_P2;PMS_P1;PMS_P2;Temp;Humidity;BMP_temperature;BMP_pressure;BME280_temperature;BME280_humidity;BME280_pressure;Samples;Min_cycle;Max_cycle;Signal;HPM_P1;HPM_P2
2022/09/30 00:00:09;;;;;;;17.80;10.05;;;;;;;9.62;78.38;99797.94;4891477;29;20040;-76
2022/09/30 00:02:35;;;;;;;17.38;9.73;;;;;;;9.57;78.13;99806.63;4891583;29;20044;-75
2022/09/30 00:05:01;;;;;;;17.80;10.07;;;;;;;9.48;78.44;99799.75;4898016;29;20142;-77
2022/09/30 00:07:29;;;;;;;19.92;10.07;;;;;;;9.43;78.08;99788.50;4893486;29;20111;-76
2022/09/30 00:09:56;;;;;;;21.42;10.80;;;;;;;9.42;77.63;99803.25;4891361;29;20044;-77
2022/09/30 00:12:22;;;;;;;20.13;10.45;;;;;;;9.39;78.22;99803.25;4892690;29;20071;-76
2022/09/30 00:14:48;;;;;;;21.90;11.07;;;;;;;9.30;78.36;99795.50;4898619;29;20040;-77
2022/09/30 00:17:14;;;;;;;20.15;10.45;;;;;;;9.26;78.08;99799.00;4899649;29;20465;-76
2022/09/30 00:19:40;;;;;;;21.75;11.48;;;;;;;9.31;78.23;99810.19;4893843;29;20492;-75
2022/09/30 00:22:06;;;;;;;21.90;10.57;;;;;;;9.32;78.78;99812.81;4894341;29;20083;-76
2022/09/30 00:24:32;;;;;;;19.95;10.23;;;;;;;9.27;78.38;99809.34;4893213;29;20044;-77
2022/09/30 00:26:58;;;;;;;20.52;10.70;;;;;;;9.32;78.40;99819.72;4889847;29;20433;-75
2022/09/30 00:29:24;;;;;;;18.85;9.10;;;;;;;9.25;78.19;99813.69;4891451;29;20044;-76
2022/09/30 00:31:50;;;;;;;20.55;9.65;;;;;;;9.17;78.24;99816.31;4892638;29;20047;-75
2022/09/30 00:34:18;;;;;;;20.42;10.35;;;;;;;9.12;78.13;99820.66;4877340;29;20040;-76
2022/09/30 00:36:47;;;;;;;19.15;9.90;;;;;;;9.07;78.52;99813.75;4875778;29;20083;-76
2022/09/30 00:39:17;;;;;;;19.25;10.70;;;;;;;9.06;78.44;99814.63;4888880;29;20044;-77
2022/09/30 00:41:46;;;;;;;22.13;10.27;;;;;;;9.06;78.54;99820.66;4893273;29;20060;-76
2022/09/30 00:44:44;;;;;;;17.52;9.65;;;;;;;9.08;78.96;99828.44;4891865;29;20048;-76
2022/09/30 00:47:37;;;;;;;19.65;9.82;;;;;;;9.03;78.88;99833.66;4892958;29;20048;-76
2022/09/30 00:50:32;;;;;;;18.08;10.10;;;;;;;8.97;78.98;99831.06;4892989;29;20045;-76
2022/09/30 00:53:01;;;;;;;19.00;10.55;;;;;;;8.94;79.06;99839.72;4891368;29;21136;-75
2022/09/30 00:55:45;;;;;;;20.58;10.18;;;;;;;8.85;78.54;99825.03;4893236;29;20293;-77
2022/09/30 00:58:17;;;;;;;22.90;10.63;;;;;;;8.83;78.69;99831.94;4900796;29;20071;-77
2022/09/30 01:00:43;;;;;;;19.75;10.23;;;;;;;8.80;78.92;99833.69;4892516;29;20143;-77
2022/09/30 01:03:09;;;;;;;21.15;9.93;;;;;;;8.76;78.65;99832.84;4893832;29;20091;-76
2022/09/30 01:05:36;;;;;;;21.67;10.05;;;;;;;8.72;79.26;99828.50;4905829;29;20112;-78
2022/09/30 01:08:04;;;;;;;23.35;10.27;;;;;;;8.72;79.31;99839.72;4892930;29;20060;-76
2022/09/30 01:10:30;;;;;;;20.98;9.82;;;;;;;8.64;79.27;99832.81;4891308;29;20063;-76
2022/09/30 01:12:58;;;;;;;19.85;10.63;;;;;;;8.67;79.20;99832.81;4891617;29;20044;-76
2022/09/30 01:15:39;;;;;;;21.13;10.52;;;;;;;8.62;79.51;99821.56;4891479;29;20040;-77
2022/09/30 01:18:26;;;;;;;22.48;11.02;;;;;;;8.70;79.39;99844.09;4893505;29;20127;-75
2022/09/30 01:21:23;;;;;;;20.75;10.38;;;;;;;8.70;79.21;99838.91;4871493;29;20049;-77
2022/09/30 01:24:12;;;;;;;19.15;9.57;;;;;;;8.66;78.88;99839.75;4908514;29;20044;-76
2022/09/30 01:27:23;;;;;;;23.63;10.23;;;;;;;8.68;79.28;99847.53;4870269;29;20056;-76
2022/09/30 01:30:20;;;;;;;19.05;10.27;;;;;;;8.65;79.53;99839.75;4907306;29;20079;-76
2022/09/30 01:33:14;;;;;;;16.75;9.20;;;;;;;8.66;79.50;99849.25;4898708;29;20072;-76
2022/09/30 01:36:03;;;;;;;16.13;8.95;;;;;;;8.68;79.16;99847.53;4896145;29;20044;-76
2022/09/30 01:38:32;;;;;;;18.25;8.70;;;;;;;8.54;79.29;99835.44;4893000;29;20135;-76
2022/09/30 01:41:27;;;;;;;23.10;9.27;;;;;;;8.58;79.12;99846.66;4892533;29;20215;-75
2022/09/30 01:44:03;;;;;;;19.52;9.48;;;;;;;8.56;79.28;99848.41;4887905;29;20040;-77
2022/09/30 01:46:35;;;;;;;19.85;8.93;;;;;;;8.57;79.34;99844.94;4907014;29;20108;-76
2022/09/30 01:49:30;;;;;;;17.40;8.40;;;;;;;8.57;79.39;99848.41;4901073;29;20168;-77
2022/09/30 01:52:15;;;;;;;20.70;10.20;;;;;;;8.47;79.34;99849.22;4891210;29;20713;-75
2022/09/30 01:54:53;;;;;;;16.10;9.05;;;;;;;8.47;79.29;99858.75;4888691;29;20135;-77
2022/09/30 01:57:45;;;;;;;18.27;9.10;;;;;;;8.49;79.27;99854.47;4890710;29;20049;-77
2022/09/30 02:00:12;;;;;;;;;;;;;;;8.52;79.35;99851.84;4894777;29;20160;-76
2022/09/30 02:03:04;;;;;;;21.38;8.88;;;;;;;8.53;79.45;99854.47;4892318;29;19926;-76
2022/09/30 02:05:54;;;;;;;28.77;9.02;;;;;;;8.48;79.18;99853.59;4869227;29;20048;-76
2022/09/30 02:08:33;;;;;;;18.38;9.07;;;;;;;8.43;78.80;99855.25;4892307;29;20047;-77
2022/09/30 02:11:05;;;;;;;28.00;9.60;;;;;;;8.37;78.96;99853.53;4906806;29;20465;-76
2022/09/30 02:13:36;;;;;;;19.45;9.25;;;;;;;8.40;79.27;99845.78;4886594;29;20517;-76
2022/09/30 02:16:29;;;;;;;18.92;7.97;;;;;;;8.46;79.35;99842.31;4886730;29;20052;-77
2022/09/30 02:19:05;;;;;;;63.45;10.77;;;;;;;8.47;79.17;99850.97;4891278;29;20048;-76
2022/09/30 02:21:38;;;;;;;85.57;10.52;;;;;;;8.39;79.47;99830.19;4890799;29;20052;-76
2022/09/30 02:24:09;;;;;;;31.27;8.55;;;;;;;8.37;78.87;99835.38;4875015;29;20128;-76
2022/09/30 02:26:39;;;;;;;62.25;9.60;;;;;;;8.35;78.84;99850.06;4888909;29;20045;-76
2022/09/30 02:29:20;;;;;;;15.65;7.80;;;;;;;8.34;79.21;99844.91;4892391;29;20131;-77
2022/09/30 02:31:52;;;;;;;24.38;10.15;;;;;;;8.27;78.55;99838.84;4889374;29;20177;-76
2022/09/30 02:34:47;;;;;;;19.25;9.77;;;;;;;8.21;78.54;99851.81;4904502;29;20040;-76
2022/09/30 02:37:19;;;;;;;16.77;8.35;;;;;;;8.24;79.22;99846.63;4912166;29;20051;-76
2022/09/30 02:39:56;;;;;;;16.77;8.52;;;;;;;8.27;79.24;99846.63;4891895;29;20047;-78
2022/09/30 02:42:27;;;;;;;17.02;8.27;;;;;;;8.29;78.48;99850.06;4889601;29;20155;-76
2022/09/30 02:44:59;;;;;;;15.32;7.38;;;;;;;8.26;78.98;99848.34;4891793;29;20107;-76
2022/09/30 02:47:53;;;;;;;17.95;7.97;;;;;;;8.26;79.08;99847.50;4887266;29;20052;-75
2022/09/30 02:50:35;;;;;;;17.73;8.75;;;;;;;8.20;79.25;99857.84;4890604;29;20036;-76
2022/09/30 02:53:31;;;;;;;14.70;8.38;;;;;;;8.18;78.64;99856.97;4889923;29;20095;-76
2022/09/30 02:56:30;;;;;;;16.85;8.27;;;;;;;8.24;79.16;99862.19;4869869;29;20185;-76
2022/09/30 02:58:57;;;;;;;16.05;8.15;;;;;;;8.26;78.91;99850.09;4904685;29;20188;-76
2022/09/30 03:01:23;;;;;;;13.98;8.18;;;;;;;8.22;78.72;99845.75;4894852;29;20056;-77
2022/09/30 03:03:54;;;;;;;14.35;7.63;;;;;;;8.20;78.65;99855.25;4902133;29;20056;-77
2022/09/30 03:06:21;;;;;;;15.93;9.10;;;;;;;8.13;78.45;99857.81;4887345;29;20040;-76
2022/09/30 03:08:48;;;;;;;17.20;8.45;;;;;;;8.19;79.05;99854.38;4888572;29;20617;-76
2022/09/30 03:11:17;;;;;;;15.38;8.55;;;;;;;8.35;79.32;99854.41;4888504;29;20060;-77
2022/09/30 03:13:45;;;;;;;13.98;8.20;;;;;;;8.49;79.28;99855.31;4893082;29;20130;-77
2022/09/30 03:16:44;;;;;;;15.43;7.90;;;;;;;8.50;78.33;99857.03;4870533;29;20044;-77
2022/09/30 03:19:44;;;;;;;14.02;8.13;;;;;;;8.54;78.80;99863.09;4863037;29;20049;-77
2022/09/30 03:22:34;;;;;;;24.10;8.93;;;;;;;8.52;78.41;99850.13;4890950;29;20100;-77
2022/09/30 03:25:18;;;;;;;14.88;8.50;;;;;;;8.49;78.31;99852.72;4890649;29;20048;-77
2022/09/30 03:28:03;;;;;;;16.55;7.63;;;;;;;8.48;78.45;99844.91;4888658;29;20048;-78
2022/09/30 03:30:31;;;;;;;19.50;8.75;;;;;;;8.47;78.33;99858.75;4893667;29;20041;-77
2022/09/30 03:33:16;;;;;;;18.33;9.10;;;;;;;8.41;78.57;99857.88;4903351;29;20106;-76
2022/09/30 03:35:52;;;;;;;13.93;7.97;;;;;;;8.35;78.48;99847.47;4896635;29;20032;-77
2022/09/30 03:38:24;;;;;;;16.15;8.55;;;;;;;8.52;79.12;99872.59;4893510;29;20099;-78
2022/09/30 03:41:21;;;;;;;13.00;8.77;;;;;;;8.63;78.74;99868.28;4893465;29;20505;-77
2022/09/30 03:44:06;;;;;;;12.07;7.32;;;;;;;8.69;78.67;99876.09;4886949;29;20051;-77
2022/09/30 03:46:40;;;;;;;13.32;7.30;;;;;;;8.72;78.75;99870.00;4894037;29;20497;-76
2022/09/30 03:49:13;;;;;;;16.02;8.40;;;;;;;8.75;78.34;99867.44;4895610;29;20048;-78
2022/09/30 03:51:40;;;;;;;15.75;7.97;;;;;;;8.77;78.31;99876.06;4891162;29;20045;-77
2022/09/30 03:54:11;;;;;;;11.88;7.53;;;;;;;8.78;78.32;99869.13;4895035;29;20054;-76
2022/09/30 03:56:42;;;;;;;13.73;7.90;;;;;;;8.77;77.56;99876.06;4895873;29;20581;-76
2022/09/30 03:59:19;;;;;;;13.55;7.75;;;;;;;8.84;78.26;99869.16;4860393;29;20099;-76
2022/09/30 04:01:45;;;;;;;10.55;7.28;;;;;;;8.93;78.23;99871.75;4893029;29;20040;-77
2022/09/30 04:04:11;;;;;;;12.45;7.53;;;;;;;8.96;78.02;99869.13;4876284;29;20044;-75
2022/09/30 04:06:37;;;;;;;12.25;7.70;;;;;;;8.94;78.02;99860.47;4899553;29;20140;-77
2022/09/30 04:09:03;;;;;;;12.13;6.97;;;;;;;9.12;77.71;99874.31;4893637;29;20049;-77
2022/09/30 04:11:29;;;;;;;14.75;7.78;;;;;;;9.06;77.23;99864.78;4892076;29;20138;-76
2022/09/30 04:13:55;;;;;;;11.68;6.70;;;;;;;9.13;77.78;99865.66;4887840;29;20431;-75
2022/09/30 04:16:22;;;;;;;13.32;7.30;;;;;;;9.13;77.49;99860.47;4888617;29;20071;-76
2022/09/30 04:18:47;;;;;;;12.15;7.32;;;;;;;9.06;77.46;99854.41;4875592;29;20123;-78
2022/09/30 04:21:14;;;;;;;14.73;7.40;;;;;;;9.11;77.04;99862.19;4908050;29;20151;-76
2022/09/30 04:23:41;;;;;;;15.50;7.60;;;;;;;9.14;77.76;99857.00;4901104;29;20450;-75
2022/09/30 04:26:12;;;;;;;17.33;7.50;;;;;;;9.18;77.65;99854.38;4883357;29;20134;-75
2022/09/30 04:28:38;;;;;;;14.82;7.38;;;;;;;9.28;77.23;99860.41;4890240;29;20419;-76
2022/09/30 04:31:05;;;;;;;16.42;7.45;;;;;;;9.24;77.40;99850.06;4886748;29;20061;-77
2022/09/30 04:33:31;;;;;;;10.80;6.55;;;;;;;9.23;76.97;99853.53;4898366;29;20048;-77
2022/09/30 04:35:59;;;;;;;15.32;6.80;;;;;;;9.23;77.61;99846.56;4898673;29;20052;-77
2022/09/30 04:38:26;;;;;;;14.18;7.32;;;;;;;9.32;77.58;99848.28;4863961;29;20092;-78
2022/09/30 04:40:55;;;;;;;11.88;6.82;;;;;;;9.53;77.31;99862.94;4885607;29;20584;-75
2022/09/30 04:43:23;;;;;;;10.38;6.63;;;;;;;9.63;77.28;99849.03;4905186;29;20069;-77
2022/09/30 04:45:51;;;;;;;13.57;6.53;;;;;;;9.85;77.30;99855.88;4903334;29;20547;-74
2022/09/30 04:48:18;;;;;;;9.43;6.18;;;;;;;9.99;77.63;99856.66;4889209;29;20040;-75
2022/09/30 04:50:44;;;;;;;11.50;6.22;;;;;;;10.18;76.30;99857.44;4879461;29;20154;-76
2022/09/30 04:53:13;;;;;;;9.88;6.78;;;;;;;10.27;76.81;99863.41;4896357;29;20071;-76
2022/09/30 04:55:41;;;;;;;10.27;6.50;;;;;;;10.17;76.02;99847.91;4899136;29;20052;-77
2022/09/30 04:58:06;;;;;;;14.48;6.07;;;;;;;10.23;76.52;99862.59;4882331;29;20089;-76
2022/09/30 05:00:33;;;;;;;10.57;6.32;;;;;;;10.26;76.24;99878.19;4882669;29;20048;-76
2022/09/30 05:02:58;;;;;;;9.63;6.55;;;;;;;10.21;75.90;99875.63;4894489;29;20052;-76
2022/09/30 05:05:25;;;;;;;10.15;6.55;;;;;;;10.26;76.37;99880.78;4882406;29;20139;-76
2022/09/30 05:07:51;;;;;;;14.57;7.30;;;;;;;10.30;75.91;99869.50;4883226;29;20052;-76
2022/09/30 05:10:17;;;;;;;14.82;7.90;;;;;;;10.33;75.72;99873.78;4868459;29;20107;-77
2022/09/30 05:12:44;;;;;;;15.07;7.80;;;;;;;10.31;75.58;99886.81;4897786;29;20127;-77
2022/09/30 05:15:10;;;;;;;13.13;7.78;;;;;;;10.41;75.01;99882.47;4898193;29;20510;-76
2022/09/30 05:17:36;;;;;;;14.98;8.02;;;;;;;10.51;75.03;99871.09;4884509;29;20041;-76
2022/09/30 05:20:04;;;;;;;12.27;7.70;;;;;;;10.61;76.04;99876.25;4880796;29;20528;-78
2022/09/30 05:22:30;;;;;;;12.43;7.63;;;;;;;10.63;75.35;99883.16;4880000;29;20264;-76
2022/09/30 05:24:56;;;;;;;14.02;7.82;;;;;;;10.75;75.80;99879.59;4897282;29;20084;-77
2022/09/30 05:27:22;;;;;;;10.98;7.45;;;;;;;10.74;74.77;99879.59;4877594;29;20044;-75
2022/09/30 05:29:48;;;;;;;11.20;7.07;;;;;;;10.72;74.86;99886.56;4892655;29;20040;-75
2022/09/30 05:32:15;;;;;;;9.57;6.68;;;;;;;10.66;74.96;99877.06;4889584;29;20191;-76
2022/09/30 05:34:41;;;;;;;11.30;7.18;;;;;;;10.63;74.51;99871.88;4893408;29;20044;-76
2022/09/30 05:37:10;;;;;;;10.98;6.55;;;;;;;10.76;74.70;99883.06;4891326;29;20045;-77
2022/09/30 05:39:36;;;;;;;9.98;6.57;;;;;;;10.73;74.06;99881.34;4887484;29;20053;-75
2022/09/30 05:42:02;;;;;;;9.38;6.60;;;;;;;10.89;74.85;99883.81;4888569;29;20075;-77
2022/09/30 05:44:28;;;;;;;10.48;6.03;;;;;;;10.98;75.13;99878.50;4889183;29;20505;-76
2022/09/30 05:46:55;;;;;;;11.10;6.40;;;;;;;11.08;74.71;99876.69;4890290;29;20131;-75
2022/09/30 05:49:21;;;;;;;8.60;6.22;;;;;;;11.08;73.28;99874.97;4872470;29;20048;-76
2022/09/30 05:51:47;;;;;;;11.15;6.55;;;;;;;11.08;73.99;99872.34;4889745;29;20041;-77
2022/09/30 05:54:13;;;;;;;10.27;6.80;;;;;;;11.04;73.54;99860.25;4890870;29;20048;-75
2022/09/30 05:56:39;;;;;;;10.02;6.78;;;;;;;11.13;73.81;99872.31;4890179;29;20139;-77
2022/09/30 05:59:06;;;;;;;7.95;6.10;;;;;;;11.19;73.97;99868.75;4899862;29;20139;-75
2022/09/30 06:01:32;;;;;;;10.75;6.65;;;;;;;11.33;73.78;99863.41;4901927;29;20041;-76
2022/09/30 06:03:58;;;;;;;9.70;6.00;;;;;;;11.60;73.82;99868.31;4901784;29;20052;-76
2022/09/30 06:06:24;;;;;;;10.23;6.20;;;;;;;11.82;73.67;99869.78;4893148;29;20051;-75
2022/09/30 06:08:51;;;;;;;11.60;6.22;;;;;;;11.99;72.95;99860.03;4905560;29;20067;-77
2022/09/30 06:11:20;;;;;;;8.70;6.75;;;;;;;12.05;72.27;99864.31;4908567;29;20044;-77
2022/09/30 06:13:47;;;;;;;11.23;6.78;;;;;;;12.32;73.27;99856.97;4914923;29;20067;-75
2022/09/30 06:16:14;;;;;;;8.40;6.03;;;;;;;12.49;72.12;99854.06;4902107;29;20112;-76
2022/09/30 06:18:40;;;;;;;9.45;6.45;;;;;;;12.59;72.42;99844.34;4890942;29;20135;-76
2022/09/30 06:21:10;;;;;;;8.75;6.03;;;;;;;13.03;72.25;99850.53;4875030;29;20068;-77
2022/09/30 06:23:36;;;;;;;10.15;6.07;;;;;;;12.96;70.57;99854.19;4893230;29;20079;-75
2022/09/30 06:26:04;;;;;;;9.02;6.03;;;;;;;12.93;70.78;99859.44;4871375;29;20116;-75
2022/09/30 06:28:33;;;;;;;7.07;5.32;;;;;;;13.06;71.07;99855.72;4872576;29;20041;-78
2022/09/30 06:31:02;;;;;;;10.27;5.97;;;;;;;13.21;71.06;99856.34;4899722;29;20063;-77
2022/09/30 06:33:28;;;;;;;10.35;6.03;;;;;;;13.54;71.06;99851.38;4891027;29;20075;-77
2022/09/30 06:35:54;;;;;;;8.65;6.03;;;;;;;13.80;69.91;99853.44;4887840;29;20084;-76
2022/09/30 06:38:22;;;;;;;7.15;5.60;;;;;;;13.73;69.30;99857.09;4890501;29;20064;-76
2022/09/30 06:40:49;;;;;;;13.77;6.57;;;;;;;13.79;69.62;99845.63;4873316;29;20088;-77
2022/09/30 06:43:21;;;;;;;9.48;5.93;;;;;;;14.20;69.59;99864.78;4890194;29;20056;-75
2022/09/30 06:45:50;;;;;;;8.85;5.85;;;;;;;14.64;69.43;99845.44;4873217;29;20041;-77
2022/09/30 06:48:16;;;;;;;7.85;5.65;;;;;;;15.14;68.59;99843.28;4888880;29;20044;-76
2022/09/30 06:50:44;;;;;;;6.43;5.50;;;;;;;15.65;67.83;99849.72;4898688;29;20191;-76
2022/09/30 06:53:11;;;;;;;9.18;5.63;;;;;;;15.93;65.76;99855.94;4881651;29;20412;-76
2022/09/30 06:55:38;;;;;;;7.88;6.05;;;;;;;15.93;65.36;99856.81;4888469;29;20095;-76
2022/09/30 06:58:13;;;;;;;7.85;5.70;;;;;;;15.89;64.45;99839.44;4869071;29;20040;-76
2022/09/30 07:00:39;;;;;;;10.40;6.15;;;;;;;16.01;63.90;99842.59;4870014;29;20049;-76
2022/09/30 07:03:11;;;;;;;8.48;5.35;;;;;;;15.98;63.47;99833.06;4887968;29;20051;-77
2022/09/30 07:05:37;;;;;;;7.95;6.20;;;;;;;16.14;62.96;99835.19;4889939;29;20055;-76
2022/09/30 07:08:03;;;;;;;6.15;5.10;;;;;;;16.47;62.91;99840.28;4889146;29;20059;-77
2022/09/30 07:10:28;;;;;;;10.80;5.78;;;;;;;17.21;63.51;99847.47;4886631;29;20048;-76
2022/09/30 07:12:54;;;;;;;7.80;6.05;;;;;;;17.31;60.25;99846.22;4888475;29;20095;-77
2022/09/30 07:15:21;;;;;;;7.22;5.63;;;;;;;17.17;61.30;99842.31;4880484;29;20644;-78
2022/09/30 07:17:58;;;;;;;7.97;5.95;;;;;;;17.28;61.08;99833.19;4889373;29;20041;-76
2022/09/30 07:20:24;;;;;;;12.43;6.30;;;;;;;17.42;60.13;99844.06;4873178;29;20060;-77
2022/09/30 07:22:50;;;;;;;12.45;6.78;;;;;;;17.39;59.22;99836.28;4889751;29;20055;-75
2022/09/30 07:25:16;;;;;;;8.35;6.40;;;;;;;17.20;60.11;99841.38;4895237;29;20055;-74
2022/09/30 07:27:43;;;;;;;11.15;6.40;;;;;;;17.31;59.22;99844.44;4904440;29;20397;-77
2022/09/30 07:30:09;;;;;;;10.52;7.05;;;;;;;17.06;59.17;99836.59;4890131;29;20052;-77
2022/09/30 07:32:36;;;;;;;11.43;7.30;;;;;;;17.02;59.70;99842.84;4874375;29;20044;-77
2022/09/30 07:35:02;;;;;;;9.57;7.18;;;;;;;17.67;59.71;99827.38;4904698;29;20051;-78
2022/09/30 07:37:34;;;;;;;8.20;6.40;;;;;;;18.73;59.31;99836.38;4888212;29;20084;-77
2022/09/30 07:40:02;;;;;;;8.07;6.85;;;;;;;20.17;59.57;99824.69;4889863;29;20048;-76
2022/09/30 07:42:30;;;;;;;8.75;6.90;;;;;;;20.96;55.61;99831.41;4889382;29;20044;-76
2022/09/30 07:44:57;;;;;;;10.57;7.22;;;;;;;21.52;53.79;99813.44;4874192;29;20554;-79
2022/09/30 07:47:23;;;;;;;8.48;6.88;;;;;;;22.01;51.77;99837.31;4873597;29;20041;-77
2022/09/30 07:49:49;;;;;;;8.77;6.53;;;;;;;22.37;51.27;99836.19;4889040;29;20116;-76
2022/09/30 07:52:15;;;;;;;12.13;6.43;;;;;;;22.73;51.45;99835.00;4887831;29;20036;-77
2022/09/30 07:54:41;;;;;;;9.60;7.20;;;;;;;22.52;48.55;99837.13;4889294;29;20135;-80
2022/09/30 07:57:07;;;;;;;8.48;7.05;;;;;;;22.14;48.18;99832.19;4889777;29;20037;-78
2022/09/30 07:59:38;;;;;;;10.85;7.72;;;;;;;21.33;48.72;99837.38;4890729;29;20135;-79
2022/09/30 08:02:06;;;;;;;10.13;7.63;;;;;;;20.51;48.54;99833.63;4889687;29;20131;-77
2022/09/30 08:04:33;;;;;;;11.25;7.45;;;;;;;20.21;50.27;99823.63;4887118;29;20044;-80
2022/09/30 08:07:01;;;;;;;14.20;7.80;;;;;;;20.84;49.78;99813.53;4885047;29;20063;-78
2022/09/30 08:09:29;;;;;;;11.95;7.85;;;;;;;20.97;49.94;99816.38;4893116;29;20088;-80
2022/09/30 08:11:55;;;;;;;11.40;8.10;;;;;;;21.06;49.80;99816.78;4871286;29;20559;-81
2022/09/30 08:14:25;;;;;;;9.40;8.10;;;;;;;20.93;48.04;99828.91;4887176;29;20410;-76
2022/09/30 08:16:51;;;;;;;15.13;8.60;;;;;;;20.53;49.81;99839.66;4893662;29;20493;-77
2022/09/30 08:19:23;;;;;;;13.85;9.43;;;;;;;20.13;50.68;99838.97;4874145;29;20393;-76
2022/09/30 08:21:51;;;;;;;14.10;9.55;;;;;;;20.67;50.15;99840.78;4892583;29;20489;-78
2022/09/30 08:24:17;;;;;;;11.57;8.52;;;;;;;21.32;49.99;99838.31;4889138;29;20148;-79
2022/09/30 08:26:43;;;;;;;12.05;9.10;;;;;;;21.39;48.10;99838.00;4891846;29;20051;-80
2022/09/30 08:29:10;;;;;;;14.73;8.88;;;;;;;21.63;49.23;99836.72;4889127;29;20052;-76
2022/09/30 08:31:36;;;;;;;12.68;9.10;;;;;;;22.39;49.85;99829.00;4908970;29;20113;-77
2022/09/30 08:34:02;;;;;;;12.77;8.27;;;;;;;23.62;48.79;99819.94;4881735;29;20136;-76
2022/09/30 08:36:29;;;;;;;9.63;7.47;;;;;;;24.29;46.35;99831.63;4868095;29;20096;-77
2022/09/30 08:38:56;;;;;;;12.10;9.65;;;;;;;23.92;45.67;99827.75;4906153;29;20100;-77
2022/09/30 08:41:27;;;;;;;14.35;8.90;;;;;;;24.04;45.22;99826.13;4904166;29;20404;-77
2022/09/30 08:44:05;;;;;;;17.17;9.40;;;;;;;23.61;44.46;99835.00;4897201;29;20680;-77
2022/09/30 08:46:48;;;;;;;14.50;9.13;;;;;;;23.29;45.42;99821.06;4911711;29;20071;-76
2022/09/30 08:49:32;;;;;;;12.10;10.00;;;;;;;23.28;44.98;99816.75;4897674;29;20152;-77
2022/09/30 08:52:01;;;;;;;13.68;9.88;;;;;;;23.05;43.92;99826.06;4896207;29;20055;-75
2022/09/30 08:54:33;;;;;;;17.73;10.27;;;;;;;22.33;44.21;99814.28;4880705;29;20119;-76
2022/09/30 08:57:02;;;;;;;12.52;9.43;;;;;;;21.78;46.64;99820.91;4902158;29;20048;-75
2022/09/30 08:59:35;;;;;;;15.45;10.40;;;;;;;21.62;45.74;99819.13;4881764;29;20132;-78
2022/09/30 09:02:14;;;;;;;14.98;10.40;;;;;;;20.97;47.33;99809.31;4896715;29;20063;-76
2022/09/30 09:04:40;;;;;;;15.75;10.70;;;;;;;20.65;47.88;99800.34;4882782;29;20049;-76
2022/09/30 09:07:05;;;;;;;18.92;11.93;;;;;;;20.20;48.31;99807.84;4907005;29;20049;-77
2022/09/30 09:09:47;;;;;;;13.98;10.32;;;;;;;20.04;49.01;99823.59;4896754;29;20532;-77
2022/09/30 09:12:30;;;;;;;14.80;10.55;;;;;;;19.91;50.52;99810.13;4894629;29;20056;-76
2022/09/30 09:14:59;;;;;;;16.95;11.02;;;;;;;19.85;50.70;99811.25;4898371;29;20475;-78
2022/09/30 09:17:49;;;;;;;18.10;10.88;;;;;;;19.72;50.78;99811.81;4885971;29;20041;-78
2022/09/30 09:20:21;;;;;;;15.70;11.20;;;;;;;19.73;52.01;99812.69;4864784;29;20040;-77
2022/09/30 09:22:50;;;;;;;17.92;11.20;;;;;;;19.60;51.62;99801.84;4896892;29;20361;-77
2022/09/30 09:25:20;;;;;;;18.45;12.32;;;;;;;19.55;51.19;99809.94;4896857;29;20056;-76
2022/09/30 09:28:00;;;;;;;15.40;10.70;;;;;;;19.37;52.40;99814.28;4875180;29;20053;-80
2022/09/30 09:30:35;;;;;;;17.52;11.93;;;;;;;19.30;52.34;99810.22;4894260;29;20536;-77
2022/09/30 09:33:21;;;;;;;16.45;11.02;;;;;;;19.22;53.08;99807.94;4894763;29;20521;-78
2022/09/30 09:35:59;;;;;;;17.35;11.50;;;;;;;19.19;53.03;99799.31;4898880;29;20108;-75
2022/09/30 09:38:25;;;;;;;18.70;11.57;;;;;;;19.29;53.21;99808.50;4886966;29;20063;-77
2022/09/30 09:41:11;;;;;;;16.40;10.95;;;;;;;19.39;53.15;99816.84;4893945;29;20049;-76
2022/09/30 09:43:59;;;;;;;16.13;10.82;;;;;;;19.44;54.08;99806.94;4899860;29;20055;-76
2022/09/30 09:47:15;;;;;;;16.42;10.68;;;;;;;19.92;53.91;99799.47;4899277;29;20048;-77
2022/09/30 09:49:53;;;;;;;16.73;10.70;;;;;;;20.23;52.90;99799.78;4882019;29;20048;-75
2022/09/30 09:52:51;;;;;;;18.27;11.82;;;;;;;20.07;51.88;99797.88;4867134;29;20059;-74
2022/09/30 09:55:21;;;;;;;16.90;11.00;;;;;;;19.69;52.50;99800.53;4896291;29;20068;-75
2022/09/30 09:58:02;;;;;;;18.48;12.07;;;;;;;19.69;53.88;99804.03;4876522;29;20493;-76
2022/09/30 10:03:23;;;;;;;19.83;11.93;;;;;;;19.52;53.77;99809.22;4890986;29;20052;-77
2022/09/30 10:06:11;;;;;;;16.90;11.68;;;;;;;19.54;53.92;99810.88;4893594;29;20039;-77
2022/09/30 10:08:55;;;;;;;15.88;11.52;;;;;;;19.56;53.51;99832.75;4889068;29;20642;-76
2022/09/30 10:11:26;;;;;;;18.40;11.55;;;;;;;19.52;53.83;99822.44;4891306;29;20092;-76
2022/09/30 10:13:57;;;;;;;18.33;12.80;;;;;;;19.23;53.44;99809.63;4887833;29;20138;-77
2022/09/30 10:16:34;;;;;;;18.48;11.95;;;;;;;19.31;54.00;99826.91;4893014;29;20044;-76
2022/09/30 10:19:04;;;;;;;17.95;12.57;;;;;;;19.14;54.36;99830.28;4894568;29;20056;-77
2022/09/30 10:21:30;;;;;;;21.05;13.23;;;;;;;19.10;54.50;99821.63;4892373;29;20146;-75
2022/09/30 10:23:58;;;;;;;19.50;13.05;;;;;;;18.98;55.58;99820.38;4895995;29;20040;-76
2022/09/30 10:26:28;;;;;;;20.95;12.40;;;;;;;19.15;55.17;99809.09;4886413;29;20454;-77
2022/09/30 10:29:00;;;;;;;20.30;12.73;;;;;;;19.11;55.31;99813.66;4905837;29;20056;-77
2022/09/30 10:31:25;;;;;;;;;;;;;;;19.19;55.37;99815.97;4873748;29;20048;-77
2022/09/30 10:34:17;;;;;;;15.88;11.43;;;;;;;19.13;55.57;99818.88;4899022;29;19919;-77
2022/09/30 10:36:44;;;;;;;15.73;11.10;;;;;;;19.28;56.28;99801.50;4895422;29;20056;-76
2022/09/30 10:39:23;;;;;;;16.38;11.52;;;;;;;19.53;55.40;99809.16;4874165;29;20473;-76
2022/09/30 10:41:58;;;;;;;17.25;10.98;;;;;;;19.42;55.44;99807.00;4888691;29;20049;-77
2022/09/30 10:44:25;;;;;;;17.23;11.73;;;;;;;19.30;54.74;99807.56;4886956;29;20093;-77
2022/09/30 10:46:57;;;;;;;16.25;10.90;;;;;;;19.42;56.22;99803.53;4888021;29;20489;-76
2022/09/30 10:49:40;;;;;;;14.50;10.75;;;;;;;19.34;54.85;99832.03;4885615;29;20049;-75
2022/09/30 10:52:17;;;;;;;14.40;10.27;;;;;;;19.08;55.37;99811.16;4890911;29;20084;-77
2022/09/30 10:54:48;;;;;;;16.40;10.18;;;;;;;19.01;55.20;99811.50;4890347;29;20071;-76
2022/09/30 10:57:21;;;;;;;15.70;10.70;;;;;;;18.96;55.43;99796.75;4887863;29;20055;-76
2022/09/30 10:59:48;;;;;;;13.70;10.48;;;;;;;19.24;55.15;99811.34;4892477;29;20040;-80
2022/09/30 11:02:36;;;;;;;15.02;10.60;;;;;;;19.25;55.41;99793.72;4890378;29;20142;-79
2022/09/30 11:05:18;;;;;;;16.60;10.20;;;;;;;19.44;55.26;99799.03;4905924;29;20037;-76
2022/09/30 11:07:48;;;;;;;13.57;9.90;;;;;;;19.49;54.95;99793.53;4885780;29;20117;-80
2022/09/30 11:10:33;;;;;;;12.27;9.27;;;;;;;19.44;55.04;99784.97;4891798;29;20489;-78
2022/09/30 11:13:12;;;;;;;16.27;9.82;;;;;;;19.30;54.78;99785.63;4889715;29;20092;-79
2022/09/30 11:15:44;;;;;;;12.43;9.57;;;;;;;19.27;55.03;99800.66;4889959;29;20048;-79
2022/09/30 11:18:10;;;;;;;13.55;9.32;;;;;;;19.09;55.24;99801.47;4890730;29;20080;-78
2022/09/30 11:20:44;;;;;;;13.95;9.70;;;;;;;19.20;55.12;99803.66;4890105;29;20909;-79
2022/09/30 11:23:25;;;;;;;12.07;8.88;;;;;;;19.20;55.06;99798.38;4889903;29;20076;-78
2022/09/30 11:25:57;;;;;;;12.80;9.00;;;;;;;19.19;55.03;99796.66;4882334;29;20155;-78
2022/09/30 11:28:35;;;;;;;14.93;9.95;;;;;;;19.21;55.15;99800.06;4885545;29;20131;-78
2022/09/30 11:31:18;;;;;;;14.93;9.73;;;;;;;19.24;55.68;99795.53;4888558;29;20230;-77
2022/09/30 11:34:06;;;;;;;14.60;10.07;;;;;;;19.44;55.18;99803.44;4888448;29;20040;-76
2022/09/30 11:36:51;;;;;;;16.85;9.38;;;;;;;19.60;55.52;99800.97;4905509;29;20045;-76
2022/09/30 11:39:42;;;;;;;13.82;9.20;;;;;;;19.74;53.77;99810.88;4899154;29;20040;-77
2022/09/30 11:42:25;;;;;;;12.32;9.10;;;;;;;19.42;54.83;99803.53;4889397;29;20056;-76
2022/09/30 11:45:34;;;;;;;12.38;9.32;;;;;;;19.07;55.46;99809.44;4886409;29;20044;-78
2022/09/30 11:48:12;;;;;;;13.88;9.20;;;;;;;19.00;55.40;99796.63;4863858;29;20063;-76
2022/09/30 11:51:05;;;;;;;12.75;9.07;;;;;;;19.12;55.96;99806.59;4909626;29;20045;-76
2022/09/30 11:53:52;;;;;;;14.70;9.07;;;;;;;18.92;55.35;99825.91;4894412;29;20147;-79
2022/09/30 11:56:39;;;;;;;12.40;9.10;;;;;;;18.72;56.04;99824.13;4859123;29;20300;-77